sensor_id;sensor_type;location;lat;lon;timestamp;pressure;altitude;pressure_sealevel;temperature;humidity
79729;BME280;69218;52.132;5.418;2023-04-24T00:00:43;99933.25;;;9.93;85.41
79729;BME280;69218;52.132;5.418;2023-04-24T00:03:11;99930.94;;;9.90;84.83
79729;BME280;69218;52.132;5.418;2023-04-24T00:05:39;99945.97;;;9.88;84.65
79729;BME280;69218;52.132;5.418;2023-04-24T00:08:06;99941.13;;;9.83;85.40
79729;BME280;69218;52.132;5.418;2023-04-24T00:10:33;99943.75;;;9.83;85.17
79729;BME280;69218;52.132;5.418;2023-04-24T00:12:59;99947.19;;;9.84;85.50
79729;BME280;69218;52.132;5.418;2023-04-24T00:15:25;99947.50;;;9.81;84.79
79729;BME280;69218;52.132;5.418;2023-04-24T00:17:52;99939.06;;;9.77;85.06
79729;BME280;69218;52.132;5.418;2023-04-24T00:20:19;99953.00;;;9.78;85.37
79729;BME280;69218;52.132;5.418;2023-04-24T00:22:46;99959.88;;;9.79;85.25
79729;BME280;69218;52.132;5.418;2023-04-24T00:25:12;99955.59;;;9.78;85.78
79729;BME280;69218;52.132;5.418;2023-04-24T00:27:40;99957.69;;;9.74;84.29
79729;BME280;69218;52.132;5.418;2023-04-24T00:30:07;99962.91;;;9.74;85.39
79729;BME280;69218;52.132;5.418;2023-04-24T00:32:33;99966.50;;;9.73;85.52
79729;BME280;69218;52.132;5.418;2023-04-24T00:35:00;99964.97;;;9.71;85.20
79729;BME280;69218;52.132;5.418;2023-04-24T00:37:26;99962.50;;;9.69;85.49
79729;BME280;69218;52.132;5.418;2023-04-24T00:39:53;99959.88;;;9.69;85.41
79729;BME280;69218;52.132;5.418;2023-04-24T00:42:20;99971.47;;;9.67;85.73
79729;BME280;69218;52.132;5.418;2023-04-24T00:44:46;99957.00;;;9.62;85.68
79729;BME280;69218;52.132;5.418;2023-04-24T00:47:13;99963.19;;;9.61;85.49
79729;BME280;69218;52.132;5.418;2023-04-24T00:49:40;99962.38;;;9.61;85.31
79729;BME280;69218;52.132;5.418;2023-04-24T00:52:07;99974.34;;;9.63;85.33
79729;BME280;69218;52.132;5.418;2023-04-24T00:54:35;99971.88;;;9.62;85.49
79729;BME280;69218;52.132;5.418;2023-04-24T00:57:05;99978.91;;;9.61;85.71
79729;BME280;69218;52.132;5.418;2023-04-24T00:59:32;99985.91;;;9.61;85.44
79729;BME280;69218;52.132;5.418;2023-04-24T01:01:59;99981.78;;;9.58;85.94
79729;BME280;69218;52.132;5.418;2023-04-24T01:04:25;99979.19;;;9.58;86.00
79729;BME280;69218;52.132;5.418;2023-04-24T01:06:54;99986.19;;;9.58;86.20
79729;BME280;69218;52.132;5.418;2023-04-24T01:09:22;99982.47;;;9.60;86.03
79729;BME280;69218;52.132;5.418;2023-04-24T01:11:50;99986.88;;;9.60;86.25
79729;BME280;69218;52.132;5.418;2023-04-24T01:14:17;99995.56;;;9.60;85.96
79729;BME280;69218;52.132;5.418;2023-04-24T01:16:43;99987.72;;;9.60;86.01
79729;BME280;69218;52.132;5.418;2023-04-24T01:19:10;99991.28;;;9.59;85.97
79729;BME280;69218;52.132;5.418;2023-04-24T01:21:38;99987.72;;;9.60;85.85
79729;BME280;69218;52.132;5.418;2023-04-24T01:24:06;99996.38;;;9.61;86.48
79729;BME280;69218;52.132;5.418;2023-04-24T01:26:34;99999.00;;;9.61;86.37
79729;BME280;69218;52.132;5.418;2023-04-24T01:29:00;100000.78;;;9.60;86.31
79729;BME280;69218;52.132;5.418;2023-04-24T01:31:28;100001.75;;;9.59;86.59
79729;BME280;69218;52.132;5.418;2023-04-24T01:33:56;100006.16;;;9.59;86.39
79729;BME280;69218;52.132;5.418;2023-04-24T01:36:23;99999.16;;;9.59;86.48
79729;BME280;69218;52.132;5.418;2023-04-24T01:38:52;100003.41;;;9.60;86.67
79729;BME280;69218;52.132;5.418;2023-04-24T01:41:19;100009.31;;;9.62;86.44
79729;BME280;69218;52.132;5.418;2023-04-24T01:43:46;100002.28;;;9.63;86.24
79729;BME280;69218;52.132;5.418;2023-04-24T01:46:13;100001.47;;;9.62;86.21
79729;BME280;69218;52.132;5.418;2023-04-24T01:48:40;100009.47;;;9.61;86.43
79729;BME280;69218;52.132;5.418;2023-04-24T01:51:09;100008.66;;;9.60;86.34
79729;BME280;69218;52.132;5.418;2023-04-24T01:53:35;100002.59;;;9.60;86.91
79729;BME280;69218;52.132;5.418;2023-04-24T01:56:02;100007.81;;;9.60;86.48
79729;BME280;69218;52.132;5.418;2023-04-24T01:58:29;100010.56;;;9.58;86.49
79729;BME280;69218;52.132;5.418;2023-04-24T02:00:59;100008.66;;;9.60;86.70
79729;BME280;69218;52.132;5.418;2023-04-24T02:03:26;100011.94;;;9.62;86.17
79729;BME280;69218;52.132;5.418;2023-04-24T02:05:53;100008.50;;;9.62;86.09
79729;BME280;69218;52.132;5.418;2023-04-24T02:08:20;100009.19;;;9.64;86.09
79729;BME280;69218;52.132;5.418;2023-04-24T02:10:46;100013.34;;;9.67;86.33
79729;BME280;69218;52.132;5.418;2023-04-24T02:13:12;100004.66;;;9.66;86.48
79729;BME280;69218;52.132;5.418;2023-04-24T02:15:39;100006.31;;;9.67;86.80
79729;BME280;69218;52.132;5.418;2023-04-24T02:18:05;100008.22;;;9.65;86.50
79729;BME280;69218;52.132;5.418;2023-04-24T02:20:33;100007.38;;;9.64;86.62
79729;BME280;69218;52.132;5.418;2023-04-24T02:23:02;100017.84;;;9.64;86.26
79729;BME280;69218;52.132;5.418;2023-04-24T02:25:28;100013.44;;;9.65;86.35
79729;BME280;69218;52.132;5.418;2023-04-24T02:27:55;100006.03;;;9.60;86.78
79729;BME280;69218;52.132;5.418;2023-04-24T02:30:21;100005.19;;;9.60;86.08
79729;BME280;69218;52.132;5.418;2023-04-24T02:32:47;100009.59;;;9.59;86.21
79729;BME280;69218;52.132;5.418;2023-04-24T02:35:14;100004.50;;;9.58;85.92
79729;BME280;69218;52.132;5.418;2023-04-24T02:37:42;100002.72;;;9.58;86.20
79729;BME280;69218;52.132;5.418;2023-04-24T02:40:08;100007.00;;;9.59;86.35
79729;BME280;69218;52.132;5.418;2023-04-24T02:42:35;100011.50;;;9.57;86.31
79729;BME280;69218;52.132;5.418;2023-04-24T02:45:01;100014.97;;;9.58;85.62
79729;BME280;69218;52.132;5.418;2023-04-24T02:47:28;100020.34;;;9.56;85.52
79729;BME280;69218;52.132;5.418;2023-04-24T02:49:54;100015.81;;;9.58;85.76
79729;BME280;69218;52.132;5.418;2023-04-24T02:52:21;100014.03;;;9.59;86.13
79729;BME280;69218;52.132;5.418;2023-04-24T02:54:47;100011.41;;;9.59;86.31
79729;BME280;69218;52.132;5.418;2023-04-24T02:57:14;100010.56;;;9.58;86.24
79729;BME280;69218;52.132;5.418;2023-04-24T02:59:41;100005.19;;;9.60;86.35
79729;BME280;69218;52.132;5.418;2023-04-24T03:02:08;100008.66;;;9.60;85.94
79729;BME280;69218;52.132;5.418;2023-04-24T03:04:34;100009.59;;;9.59;85.45
79729;BME280;69218;52.132;5.418;2023-04-24T03:07:01;100003.56;;;9.59;85.49
79729;BME280;69218;52.132;5.418;2023-04-24T03:09:28;100007.00;;;9.59;85.84
79729;BME280;69218;52.132;5.418;2023-04-24T03:11:54;100008.66;;;9.60;86.47
79729;BME280;69218;52.132;5.418;2023-04-24T03:14:21;100002.44;;;9.61;85.89
79729;BME280;69218;52.132;5.418;2023-04-24T03:16:48;100009.59;;;9.59;85.51
79729;BME280;69218;52.132;5.418;2023-04-24T03:19:14;100007.00;;;9.59;85.96
79729;BME280;69218;52.132;5.418;2023-04-24T03:21:41;100004.50;;;9.58;86.41
79729;BME280;69218;52.132;5.418;2023-04-24T03:24:08;100006.16;;;9.59;86.46
79729;BME280;69218;52.132;5.418;2023-04-24T03:26:35;100002.59;;;9.60;85.77
79729;BME280;69218;52.132;5.418;2023-04-24T03:29:01;100006.03;;;9.60;86.05
79729;BME280;69218;52.132;5.418;2023-04-24T03:31:28;100010.28;;;9.61;86.47
79729;BME280;69218;52.132;5.418;2023-04-24T03:33:54;100017.47;;;9.59;86.02
79729;BME280;69218;52.132;5.418;2023-04-24T03:36:21;100021.03;;;9.58;85.77
79729;BME280;69218;52.132;5.418;2023-04-24T03:38:47;100013.19;;;9.58;85.72
79729;BME280;69218;52.132;5.418;2023-04-24T03:41:14;100021.97;;;9.57;85.90
79729;BME280;69218;52.132;5.418;2023-04-24T03:43:40;100020.34;;;9.56;85.13
79729;BME280;69218;52.132;5.418;2023-04-24T03:46:07;100014.84;;;9.59;86.01
79729;BME280;69218;52.132;5.418;2023-04-24T03:48:35;100018.00;;;9.53;84.82
79729;BME280;69218;52.132;5.418;2023-04-24T03:51:02;100011.81;;;9.54;85.33
79729;BME280;69218;52.132;5.418;2023-04-24T03:53:28;100018.97;;;9.52;84.85
79729;BME280;69218;52.132;5.418;2023-04-24T03:55:55;100022.13;;;9.56;84.69
79729;BME280;69218;52.132;5.418;2023-04-24T03:58:21;100021.16;;;9.57;84.04
79729;BME280;69218;52.132;5.418;2023-04-24T04:00:48;100019.38;;;9.57;84.18
79729;BME280;69218;52.132;5.418;2023-04-24T04:03:15;100029.81;;;9.57;84.91
79729;BME280;69218;52.132;5.418;2023-04-24T04:05:42;100029.28;;;9.54;85.62
79729;BME280;69218;52.132;5.418;2023-04-24T04:08:09;100033.69;;;9.53;85.50
79729;BME280;69218;52.132;5.418;2023-04-24T04:10:35;100029.44;;;9.52;85.78
79729;BME280;69218;52.132;5.418;2023-04-24T04:13:02;100027.91;;;9.50;85.51
79729;BME280;69218;52.132;5.418;2023-04-24T04:15:28;100034.91;;;9.49;85.02
79729;BME280;69218;52.132;5.418;2023-04-24T04:17:55;100037.69;;;9.48;84.43
79729;BME280;69218;52.132;5.418;2023-04-24T04:20:21;100041.78;;;9.50;84.35
79729;BME280;69218;52.132;5.418;2023-04-24T04:22:48;100034.22;;;9.47;84.48
79729;BME280;69218;52.132;5.418;2023-04-24T04:25:14;100036.16;;;9.45;85.20
79729;BME280;69218;52.132;5.418;2023-04-24T04:27:41;100034.63;;;9.43;84.01
79729;BME280;69218;52.132;5.418;2023-04-24T04:30:08;100042.34;;;9.44;83.48
79729;BME280;69218;52.132;5.418;2023-04-24T04:32:35;100043.19;;;9.45;84.72
79729;BME280;69218;52.132;5.418;2023-04-24T04:35:02;100042.91;;;9.38;84.50
79729;BME280;69218;52.132;5.418;2023-04-24T04:37:30;100048.00;;;9.40;84.78
79729;BME280;69218;52.132;5.418;2023-04-24T04:39:57;100055.84;;;9.40;84.34
79729;BME280;69218;52.132;5.418;2023-04-24T04:42:27;100060.94;;;9.41;84.43
79729;BME280;69218;52.132;5.418;2023-04-24T04:44:54;100059.72;;;9.45;84.04
79729;BME280;69218;52.132;5.418;2023-04-24T04:47:22;100066.72;;;9.45;84.29
79729;BME280;69218;52.132;5.418;2023-04-24T04:49:50;100069.34;;;9.45;85.02
79729;BME280;69218;52.132;5.418;2023-04-24T04:52:18;100073.72;;;9.44;85.35
79729;BME280;69218;52.132;5.418;2023-04-24T04:54:44;100068.78;;;9.41;84.61
79729;BME280;69218;52.132;5.418;2023-04-24T04:57:12;100073.63;;;9.46;85.22
79729;BME280;69218;52.132;5.418;2023-04-24T04:59:39;100071.69;;;9.48;84.75
79729;BME280;69218;52.132;5.418;2023-04-24T05:02:07;100078.03;;;9.45;85.59
79729;BME280;69218;52.132;5.418;2023-04-24T05:04:34;100082.44;;;9.45;85.34
79729;BME280;69218;52.132;5.418;2023-04-24T05:07:01;100084.59;;;9.40;85.42
79729;BME280;69218;52.132;5.418;2023-04-24T05:09:27;100096.88;;;9.39;85.91
79729;BME280;69218;52.132;5.418;2023-04-24T05:11:55;100095.06;;;9.40;85.37
79729;BME280;69218;52.132;5.418;2023-04-24T05:14:22;100098.94;;;9.45;84.68
79729;BME280;69218;52.132;5.418;2023-04-24T05:16:49;100102.78;;;9.51;84.88
79729;BME280;69218;52.132;5.418;2023-04-24T05:19:15;100110.25;;;9.55;84.38
79729;BME280;69218;52.132;5.418;2023-04-24T05:21:45;100103.91;;;9.58;84.00
79729;BME280;69218;52.132;5.418;2023-04-24T05:24:11;100109.03;;;9.59;84.06
79729;BME280;69218;52.132;5.418;2023-04-24T05:26:38;100110.25;;;9.55;84.30
79729;BME280;69218;52.132;5.418;2023-04-24T05:29:04;100126.78;;;9.56;84.69
79729;BME280;69218;52.132;5.418;2023-04-24T05:31:31;100125.94;;;9.55;84.22
79729;BME280;69218;52.132;5.418;2023-04-24T05:33:57;100130.22;;;9.56;84.86
79729;BME280;69218;52.132;5.418;2023-04-24T05:36:25;100132.59;;;9.59;84.50
79729;BME280;69218;52.132;5.418;2023-04-24T05:38:53;100140.16;;;9.62;84.15
79729;BME280;69218;52.132;5.418;2023-04-24T05:41:19;100141.81;;;9.63;84.53
79729;BME280;69218;52.132;5.418;2023-04-24T05:43:47;100153.25;;;9.62;84.60
79729;BME280;69218;52.132;5.418;2023-04-24T05:46:13;100158.63;;;9.61;84.67
79729;BME280;69218;52.132;5.418;2023-04-24T05:48:40;100152.56;;;9.60;84.98
79729;BME280;69218;52.132;5.418;2023-04-24T05:51:06;100154.47;;;9.58;85.00
79729;BME280;69218;52.132;5.418;2023-04-24T05:53:33;100159.00;;;9.56;84.97
79729;BME280;69218;52.132;5.418;2023-04-24T05:55:59;100166.03;;;9.56;85.91
79729;BME280;69218;52.132;5.418;2023-04-24T05:58:26;100174.16;;;9.53;85.38
79729;BME280;69218;52.132;5.418;2023-04-24T06:00:52;100172.59;;;9.50;85.62
79729;BME280;69218;52.132;5.418;2023-04-24T06:03:19;100178.81;;;9.49;85.07
79729;BME280;69218;52.132;5.418;2023-04-24T06:05:45;100185.69;;;9.50;85.37
79729;BME280;69218;52.132;5.418;2023-04-24T06:08:13;100193.69;;;9.49;85.46
79729;BME280;69218;52.132;5.418;2023-04-24T06:10:39;100196.44;;;9.47;85.56
79729;BME280;69218;52.132;5.418;2023-04-24T06:13:06;100200.97;;;9.45;85.88
79729;BME280;69218;52.132;5.418;2023-04-24T06:15:32;100199.19;;;9.46;85.69
79729;BME280;69218;52.132;5.418;2023-04-24T06:17:59;100208.94;;;9.44;85.60
79729;BME280;69218;52.132;5.418;2023-04-24T06:20:26;100211.00;;;9.40;85.59
79729;BME280;69218;52.132;5.418;2023-04-24T06:22:52;100210.16;;;9.40;85.60
79729;BME280;69218;52.132;5.418;2023-04-24T06:25:20;100216.22;;;9.40;85.83
79729;BME280;69218;52.132;5.418;2023-04-24T06:27:46;100223.38;;;9.38;85.53
79729;BME280;69218;52.132;5.418;2023-04-24T06:30:13;100232.28;;;9.35;85.40
79729;BME280;69218;52.132;5.418;2023-04-24T06:32:39;100232.28;;;9.35;85.44
79729;BME280;69218;52.132;5.418;2023-04-24T06:35:07;100245.50;;;9.34;85.60
79729;BME280;69218;52.132;5.418;2023-04-24T06:37:34;100249.47;;;9.28;86.13
79729;BME280;69218;52.132;5.418;2023-04-24T06:40:01;100250.28;;;9.29;86.03
79729;BME280;69218;52.132;5.418;2023-04-24T06:42:27;100254.38;;;9.22;86.05
79729;BME280;69218;52.132;5.418;2023-04-24T06:44:53;100261.66;;;9.18;86.21
79729;BME280;69218;52.132;5.418;2023-04-24T06:47:20;100272.13;;;9.18;86.48
79729;BME280;69218;52.132;5.418;2023-04-24T06:49:47;100275.69;;;9.17;86.77
79729;BME280;69218;52.132;5.418;2023-04-24T06:52:13;100289.00;;;9.14;86.87
79729;BME280;69218;52.132;5.418;2023-04-24T06:54:41;100286.66;;;9.11;86.75
79729;BME280;69218;52.132;5.418;2023-04-24T06:57:08;100293.41;;;9.14;86.58
79729;BME280;69218;52.132;5.418;2023-04-24T06:59:34;100295.47;;;9.10;86.57
79729;BME280;69218;52.132;5.418;2023-04-24T07:02:01;100313.88;;;9.08;86.57
79729;BME280;69218;52.132;5.418;2023-04-24T07:04:27;100318.53;;;9.05;86.74
79729;BME280;69218;52.132;5.418;2023-04-24T07:06:55;100317.25;;;8.99;86.75
79729;BME280;69218;52.132;5.418;2023-04-24T07:09:23;100332.94;;;8.99;87.18
79729;BME280;69218;52.132;5.418;2023-04-24T07:11:50;100337.47;;;8.97;86.98
79729;BME280;69218;52.132;5.418;2023-04-24T07:14:16;100340.28;;;8.94;87.09
79729;BME280;69218;52.132;5.418;2023-04-24T07:16:43;100345.66;;;8.93;86.82
79729;BME280;69218;52.132;5.418;2023-04-24T07:19:09;100355.28;;;8.92;86.26
79729;BME280;69218;52.132;5.418;2023-04-24T07:21:36;100361.47;;;8.91;86.41
79729;BME280;69218;52.132;5.418;2023-04-24T07:24:02;100369.31;;;8.91;86.04
79729;BME280;69218;52.132;5.418;2023-04-24T07:26:30;100377.50;;;8.87;86.17
79729;BME280;69218;52.132;5.418;2023-04-24T07:28:57;100375.97;;;8.84;85.95
79729;BME280;69218;52.132;5.418;2023-04-24T07:31:23;100386.31;;;8.86;86.42
79729;BME280;69218;52.132;5.418;2023-04-24T07:33:50;100390.84;;;8.84;85.92
79729;BME280;69218;52.132;5.418;2023-04-24T07:36:16;100396.75;;;8.86;86.20
79729;BME280;69218;52.132;5.418;2023-04-24T07:38:45;100402.00;;;8.86;85.83
79729;BME280;69218;52.132;5.418;2023-04-24T07:41:13;100413.41;;;8.85;85.84
79729;BME280;69218;52.132;5.418;2023-04-24T07:43:40;100422.06;;;8.85;85.79
79729;BME280;69218;52.132;5.418;2023-04-24T07:46:07;100426.47;;;8.85;85.98
79729;BME280;69218;52.132;5.418;2023-04-24T07:48:34;100428.38;;;8.83;85.76
79729;BME280;69218;52.132;5.418;2023-04-24T07:51:01;100429.09;;;8.85;85.51
79729;BME280;69218;52.132;5.418;2023-04-24T07:53:27;100433.63;;;8.83;85.91
79729;BME280;69218;52.132;5.418;2023-04-24T07:55:57;100438.59;;;8.86;85.43
79729;BME280;69218;52.132;5.418;2023-04-24T07:58:24;100440.97;;;8.89;85.54
79729;BME280;69218;52.132;5.418;2023-04-24T08:00:50;100448.69;;;8.90;86.06
79729;BME280;69218;52.132;5.418;2023-04-24T08:03:17;100445.13;;;8.91;85.96
79729;BME280;69218;52.132;5.418;2023-04-24T08:05:46;100449.38;;;8.92;85.89
79729;BME280;69218;52.132;5.418;2023-04-24T08:08:13;100459.00;;;8.92;85.88
79729;BME280;69218;52.132;5.418;2023-04-24T08:10:40;100466.84;;;8.92;85.32
79729;BME280;69218;52.132;5.418;2023-04-24T08:13:06;100465.69;;;8.85;85.22
79729;BME280;69218;52.132;5.418;2023-04-24T08:15:33;100488.72;;;8.79;85.12
79729;BME280;69218;52.132;5.418;2023-04-24T08:17:59;100480.03;;;8.79;86.20
79729;BME280;69218;52.132;5.418;2023-04-24T08:20:26;100499.66;;;8.85;86.39
79729;BME280;69218;52.132;5.418;2023-04-24T08:22:53;100496.09;;;8.86;86.22
79729;BME280;69218;52.132;5.418;2023-04-24T08:25:20;100504.19;;;8.83;86.45
79729;BME280;69218;52.132;5.418;2023-04-24T08:27:46;100510.44;;;8.80;86.11
79729;BME280;69218;52.132;5.418;2023-04-24T08:30:13;100517.84;;;8.75;86.16
79729;BME280;69218;52.132;5.418;2023-04-24T08:32:39;100523.66;;;8.67;85.53
79729;BME280;69218;52.132;5.418;2023-04-24T08:35:06;100536.09;;;8.64;85.16
79729;BME280;69218;52.132;5.418;2023-04-24T08:37:35;100536.94;;;8.64;85.22
79729;BME280;69218;52.132;5.418;2023-04-24T08:40:06;100549.53;;;8.70;85.61
79729;BME280;69218;52.132;5.418;2023-04-24T08:42:39;100552.78;;;8.74;85.85
79729;BME280;69218;52.132;5.418;2023-04-24T08:45:06;100549.56;;;8.82;85.89
79729;BME280;69218;52.132;5.418;2023-04-24T08:47:35;100553.38;;;8.89;85.37
79729;BME280;69218;52.132;5.418;2023-04-24T08:50:05;100556.44;;;8.94;85.23
79729;BME280;69218;52.132;5.418;2023-04-24T08:52:34;100563.22;;;8.96;84.62
79729;BME280;69218;52.132;5.418;2023-04-24T08:55:01;100566.41;;;9.00;85.16
79729;BME280;69218;52.132;5.418;2023-04-24T08:57:28;100575.69;;;9.04;84.42
79729;BME280;69218;52.132;5.418;2023-04-24T08:59:56;100573.53;;;9.09;83.82
79729;BME280;69218;52.132;5.418;2023-04-24T09:02:24;100563.56;;;9.14;82.94
79729;BME280;69218;52.132;5.418;2023-04-24T09:04:52;100582.94;;;9.12;83.05
79729;BME280;69218;52.132;5.418;2023-04-24T09:07:19;100594.84;;;9.04;81.39
79729;BME280;69218;52.132;5.418;2023-04-24T09:09:50;100590.19;;;9.08;82.22
79729;BME280;69218;52.132;5.418;2023-04-24T09:12:17;100599.47;;;9.12;82.31
79729;BME280;69218;52.132;5.418;2023-04-24T09:14:45;100600.53;;;9.21;81.54
79729;BME280;69218;52.132;5.418;2023-04-24T09:17:12;100597.69;;;9.24;81.34
79729;BME280;69218;52.132;5.418;2023-04-24T09:19:40;100604.09;;;9.31;80.29
79729;BME280;69218;52.132;5.418;2023-04-24T09:22:07;100612.19;;;9.28;79.76
79729;BME280;69218;52.132;5.418;2023-04-24T09:24:35;100618.59;;;9.35;80.69
79729;BME280;69218;52.132;5.418;2023-04-24T09:27:02;100616.81;;;9.47;80.21
79729;BME280;69218;52.132;5.418;2023-04-24T09:29:28;100629.75;;;9.59;80.78
79729;BME280;69218;52.132;5.418;2023-04-24T09:31:55;100622.13;;;9.68;81.50
79729;BME280;69218;52.132;5.418;2023-04-24T09:34:23;100624.22;;;9.85;79.71
79729;BME280;69218;52.132;5.418;2023-04-24T09:36:50;100623.50;;;9.94;80.13
79729;BME280;69218;52.132;5.418;2023-04-24T09:39:18;100626.81;;;9.96;78.24
79729;BME280;69218;52.132;5.418;2023-04-24T09:41:54;100635.94;;;10.13;79.70
79729;BME280;69218;52.132;5.418;2023-04-24T09:44:24;100642.56;;;10.28;79.05
79729;BME280;69218;52.132;5.418;2023-04-24T09:46:56;100641.94;;;10.36;78.10
79729;BME280;69218;52.132;5.418;2023-04-24T09:49:30;100652.41;;;10.36;78.33
79729;BME280;69218;52.132;5.418;2023-04-24T09:52:03;100660.22;;;10.26;76.91
79729;BME280;69218;52.132;5.418;2023-04-24T09:54:30;100653.91;;;10.06;74.83
79729;BME280;69218;52.132;5.418;2023-04-24T09:56:57;100662.53;;;9.86;74.78
79729;BME280;69218;52.132;5.418;2023-04-24T09:59:23;100667.44;;;9.79;75.82
79729;BME280;69218;52.132;5.418;2023-04-24T10:01:50;100667.56;;;9.78;75.64
79729;BME280;69218;52.132;5.418;2023-04-24T10:04:20;100669.47;;;9.87;74.12
79729;BME280;69218;52.132;5.418;2023-04-24T10:06:48;100677.28;;;9.98;75.98
79729;BME280;69218;52.132;5.418;2023-04-24T10:09:17;100678.72;;;10.02;74.05
79729;BME280;69218;52.132;5.418;2023-04-24T10:11:45;100680.59;;;10.11;75.08
79729;BME280;69218;52.132;5.418;2023-04-24T10:14:14;100686.53;;;10.25;74.47
79729;BME280;69218;52.132;5.418;2023-04-24T10:16:41;100685.91;;;10.32;73.48
79729;BME280;69218;52.132;5.418;2023-04-24T10:19:11;100686.00;;;10.42;75.11
79729;BME280;69218;52.132;5.418;2023-04-24T10:21:40;100690.41;;;10.41;73.50
79729;BME280;69218;52.132;5.418;2023-04-24T10:24:14;100690.66;;;10.38;73.69
79729;BME280;69218;52.132;5.418;2023-04-24T10:26:42;100695.69;;;10.30;71.65
79729;BME280;69218;52.132;5.418;2023-04-24T10:29:10;100700.78;;;10.21;71.17
79729;BME280;69218;52.132;5.418;2023-04-24T10:31:39;100705.69;;;10.25;72.53
79729;BME280;69218;52.132;5.418;2023-04-24T10:34:07;100698.19;;;10.32;69.98
79729;BME280;69218;52.132;5.418;2023-04-24T10:36:35;100698.84;;;10.45;73.15
79729;BME280;69218;52.132;5.418;2023-04-24T10:39:03;100700.03;;;10.73;72.83
79729;BME280;69218;52.132;5.418;2023-04-24T10:41:32;100705.31;;;10.94;72.39
79729;BME280;69218;52.132;5.418;2023-04-24T10:44:13;100706.25;;;11.14;71.32
79729;BME280;69218;52.132;5.418;2023-04-24T10:46:42;100713.00;;;11.37;71.74
79729;BME280;69218;52.132;5.418;2023-04-24T10:49:09;100719.66;;;11.41;69.41
79729;BME280;69218;52.132;5.418;2023-04-24T10:51:48;100721.84;;;11.36;70.43
79729;BME280;69218;52.132;5.418;2023-04-24T10:59:48;100725.31;;;10.95;70.68
79729;BME280;69218;52.132;5.418;2023-04-24T11:02:16;100732.28;;;10.85;71.44
79729;BME280;69218;52.132;5.418;2023-04-24T11:04:43;100733.31;;;10.72;70.07
79729;BME280;69218;52.132;5.418;2023-04-24T11:07:10;100730.38;;;10.55;70.80
79729;BME280;69218;52.132;5.418;2023-04-24T11:09:37;100731.97;;;10.46;71.25
79729;BME280;69218;52.132;5.418;2023-04-24T11:12:07;100739.69;;;10.48;71.97
79729;BME280;69218;52.132;5.418;2023-04-24T11:15:04;100748.88;;;10.42;72.16
79729;BME280;69218;52.132;5.418;2023-04-24T11:17:38;100756.38;;;10.47;72.52
79729;BME280;69218;52.132;5.418;2023-04-24T11:20:07;100766.28;;;10.43;73.00
79729;BME280;69218;52.132;5.418;2023-04-24T11:22:53;100778.91;;;10.38;72.54
79729;BME280;69218;52.132;5.418;2023-04-24T11:25:24;100771.53;;;10.32;73.69
79729;BME280;69218;52.132;5.418;2023-04-24T11:28:03;100775.81;;;10.33;72.13
79729;BME280;69218;52.132;5.418;2023-04-24T11:30:31;100767.06;;;10.55;74.24
79729;BME280;69218;52.132;5.418;2023-04-24T11:33:03;100778.41;;;10.87;73.50
79729;BME280;69218;52.132;5.418;2023-04-24T11:35:35;100778.31;;;11.10;73.92
79729;BME280;69218;52.132;5.418;2023-04-24T11:38:06;100773.72;;;11.53;73.59
79729;BME280;69218;52.132;5.418;2023-04-24T11:40:49;100772.09;;;11.83;73.39
79729;BME280;69218;52.132;5.418;2023-04-24T11:43:16;100770.94;;;11.76;71.45
79729;BME280;69218;52.132;5.418;2023-04-24T11:45:48;100776.53;;;11.62;71.61
79729;BME280;69218;52.132;5.418;2023-04-24T11:48:19;100779.88;;;11.64;71.97
79729;BME280;69218;52.132;5.418;2023-04-24T11:50:48;100786.44;;;11.79;70.35
79729;BME280;69218;52.132;5.418;2023-04-24T11:53:14;100785.53;;;11.90;69.73
79729;BME280;69218;52.132;5.418;2023-04-24T11:55:41;100786.63;;;12.18;68.80
79729;BME280;69218;52.132;5.418;2023-04-24T11:58:07;100799.06;;;12.25;65.75
79729;BME280;69218;52.132;5.418;2023-04-24T12:00:34;100781.78;;;12.23;65.67
79729;BME280;69218;52.132;5.418;2023-04-24T12:05:33;100796.25;;;12.57;64.49
79729;BME280;69218;52.132;5.418;2023-04-24T12:08:01;100798.75;;;12.59;66.04
79729;BME280;69218;52.132;5.418;2023-04-24T12:10:30;100805.91;;;12.47;65.70
79729;BME280;69218;52.132;5.418;2023-04-24T12:12:58;100817.63;;;12.24;64.75
79729;BME280;69218;52.132;5.418;2023-04-24T12:15:25;100819.88;;;11.98;66.66
79729;BME280;69218;52.132;5.418;2023-04-24T12:17:53;100829.81;;;11.94;65.61
79729;BME280;69218;52.132;5.418;2023-04-24T12:20:31;100817.28;;;11.77;63.39
79729;BME280;69218;52.132;5.418;2023-04-24T12:23:01;100828.22;;;11.61;63.13
79729;BME280;69218;52.132;5.418;2023-04-24T12:25:30;100825.28;;;11.54;64.41
79729;BME280;69218;52.132;5.418;2023-04-24T12:30:31;100829.00;;;11.52;67.38
79729;BME280;69218;52.132;5.418;2023-04-24T12:32:59;100837.56;;;11.54;67.53
79729;BME280;69218;52.132;5.418;2023-04-24T12:35:31;100838.53;;;11.74;66.48
79729;BME280;69218;52.132;5.418;2023-04-24T12:38:10;100840.97;;;11.87;65.29
79729;BME280;69218;52.132;5.418;2023-04-24T12:40:38;100840.47;;;11.72;64.51
79729;BME280;69218;52.132;5.418;2023-04-24T12:43:15;100853.13;;;11.46;62.51
79729;BME280;69218;52.132;5.418;2023-04-24T12:45:42;100846.88;;;11.37;61.88
79729;BME280;69218;52.132;5.418;2023-04-24T12:48:09;100854.63;;;11.27;62.30
79729;BME280;69218;52.132;5.418;2023-04-24T12:50:35;100857.72;;;11.33;63.68
79729;BME280;69218;52.132;5.418;2023-04-24T12:53:02;100862.97;;;11.33;63.51
79729;BME280;69218;52.132;5.418;2023-04-24T12:55:28;100857.72;;;11.33;64.58
79729;BME280;69218;52.132;5.418;2023-04-24T12:57:55;100870.19;;;11.19;64.09
79729;BME280;69218;52.132;5.418;2023-04-24T13:00:22;100870.19;;;11.19;64.71
79729;BME280;69218;52.132;5.418;2023-04-24T13:02:49;100877.53;;;11.05;65.40
79729;BME280;69218;52.132;5.418;2023-04-24T13:05:16;100895.81;;;10.84;66.85
79729;BME280;69218;52.132;5.418;2023-04-24T13:07:42;100894.19;;;10.71;67.80
79729;BME280;69218;52.132;5.418;2023-04-24T13:10:09;100908.34;;;10.69;68.50
79729;BME280;69218;52.132;5.418;2023-04-24T13:12:36;100904.06;;;10.79;69.53